createdAt,value
2017-12-15T00:00:40.777Z,12.40
2017-12-15T00:03:07.202Z,11.32
2017-12-15T00:05:33.500Z,14.77
2017-12-15T00:08:00.533Z,15.52
2017-12-15T00:10:26.829Z,14.38
2017-12-15T00:12:53.129Z,12.52
2017-12-15T00:15:20.114Z,15.90
2017-12-15T00:17:46.386Z,12.82
2017-12-15T00:20:12.633Z,12.70
2017-12-15T00:22:38.894Z,13.02
2017-12-15T00:25:05.145Z,11.45
2017-12-15T00:27:32.157Z,12.07
2017-12-15T00:29:59.305Z,14.52
2017-12-15T00:32:25.613Z,10.70
2017-12-15T00:34:51.895Z,14.90
2017-12-15T00:37:18.141Z,10.57
2017-12-15T00:39:44.401Z,11.63
2017-12-15T00:42:10.746Z,15.30
2017-12-15T00:44:36.991Z,12.45
2017-12-15T00:47:03.384Z,15.00
2017-12-15T00:49:30.375Z,11.90
2017-12-15T00:51:56.661Z,12.20
2017-12-15T00:54:22.905Z,14.15
2017-12-15T00:56:49.189Z,12.20
2017-12-15T00:59:16.205Z,11.48
2017-12-15T01:01:42.470Z,12.40
2017-12-15T01:04:08.778Z,15.15
2017-12-15T01:06:35.073Z,10.40
2017-12-15T01:09:01.326Z,9.43
2017-12-15T01:11:27.633Z,10.20
2017-12-15T01:13:53.902Z,11.70
2017-12-15T01:16:20.917Z,9.23
2017-12-15T01:18:47.337Z,10.55
2017-12-15T01:21:13.566Z,11.30
2017-12-15T01:23:39.805Z,9.70
2017-12-15T01:26:06.197Z,11.02
2017-12-15T01:28:32.492Z,11.23
2017-12-15T01:30:58.773Z,12.02
2017-12-15T01:33:25.079Z,13.23
2017-12-15T01:35:51.342Z,13.93
2017-12-15T01:38:17.577Z,17.98
2017-12-15T01:40:44.645Z,17.05
2017-12-15T01:43:11.670Z,16.20
2017-12-15T01:45:38.677Z,22.67
2017-12-15T01:48:04.938Z,18.15
2017-12-15T01:50:31.221Z,24.48
2017-12-15T01:52:58.226Z,24.75
2017-12-15T01:55:24.509Z,16.85
2017-12-15T01:57:50.777Z,18.92
2017-12-15T02:00:17.008Z,14.95
2017-12-15T02:02:43.280Z,14.57
2017-12-15T02:05:09.574Z,11.23
2017-12-15T02:07:36.581Z,13.55
2017-12-15T02:10:02.829Z,12.18
2017-12-15T02:12:29.077Z,13.73
2017-12-15T02:14:55.332Z,15.50
2017-12-15T02:17:21.600Z,14.73
2017-12-15T02:19:47.921Z,15.77
2017-12-15T02:22:14.166Z,15.25
2017-12-15T02:24:40.427Z,13.15
2017-12-15T02:27:07.428Z,15.98
2017-12-15T02:29:33.656Z,14.65
2017-12-15T02:31:59.926Z,13.82
2017-12-15T02:34:26.186Z,12.82
2017-12-15T02:36:52.447Z,16.02
2017-12-15T02:39:18.688Z,15.60
2017-12-15T02:41:45.694Z,14.82
2017-12-15T02:44:11.952Z,19.48
2017-12-15T02:46:38.223Z,18.45
2017-12-15T02:49:04.463Z,15.27
2017-12-15T02:51:30.705Z,20.10
2017-12-15T02:53:56.930Z,19.75
2017-12-15T02:56:23.214Z,19.35
2017-12-15T02:58:49.478Z,20.85
2017-12-15T03:01:15.724Z,15.48
2017-12-15T03:03:42.054Z,15.30
2017-12-15T03:06:09.071Z,16.65
2017-12-15T03:08:35.329Z,19.70
2017-12-15T03:11:01.594Z,25.12
2017-12-15T03:13:28.577Z,20.17
2017-12-15T03:15:54.841Z,24.42
2017-12-15T03:18:21.097Z,21.55
2017-12-15T03:20:47.818Z,24.27
2017-12-15T03:23:14.555Z,19.67
2017-12-15T03:25:40.844Z,22.20
2017-12-15T03:28:07.107Z,29.02
2017-12-15T03:30:34.163Z,23.12
2017-12-15T03:33:00.483Z,24.75
2017-12-15T03:35:27.534Z,23.98
2017-12-15T03:37:53.781Z,25.35
2017-12-15T03:40:20.793Z,19.98
2017-12-15T03:42:47.050Z,20.60
2017-12-15T03:45:13.354Z,18.05
2017-12-15T03:47:40.342Z,17.58
2017-12-15T03:50:06.597Z,14.57
2017-12-15T03:52:32.850Z,16.90
2017-12-15T03:54:59.290Z,15.20
2017-12-15T03:57:25.552Z,18.67
2017-12-15T03:59:52.522Z,14.77
2017-12-15T04:02:18.774Z,18.08
2017-12-15T04:04:45.013Z,16.52
2017-12-15T04:07:11.310Z,16.52
2017-12-15T04:09:37.542Z,12.50
2017-12-15T04:12:03.794Z,17.87
2017-12-15T04:14:30.043Z,16.35
2017-12-15T04:16:56.288Z,16.90
2017-12-15T04:19:22.538Z,18.58
2017-12-15T04:21:48.788Z,16.05
2017-12-15T04:24:15.041Z,13.60
2017-12-15T04:26:41.329Z,18.90
2017-12-15T04:29:07.585Z,13.65
2017-12-15T04:31:33.846Z,14.75
2017-12-15T04:34:00.845Z,14.30
2017-12-15T04:36:27.158Z,12.20
2017-12-15T04:38:53.418Z,11.52
2017-12-15T04:41:20.437Z,13.98
2017-12-15T04:43:46.720Z,13.50
2017-12-15T04:46:12.993Z,13.60
2017-12-15T04:48:39.261Z,14.55
2017-12-15T04:51:06.289Z,16.05
2017-12-15T04:53:32.547Z,19.27
2017-12-15T04:55:58.830Z,18.15
2017-12-15T04:58:25.067Z,20.90
2017-12-15T05:00:51.409Z,16.80
2017-12-15T05:03:17.644Z,19.17
2017-12-15T05:05:44.672Z,21.08
2017-12-15T05:08:10.939Z,21.23
2017-12-15T05:10:37.173Z,18.98
2017-12-15T05:13:04.179Z,20.65
2017-12-15T05:15:30.434Z,20.05
2017-12-15T05:17:56.686Z,19.85
2017-12-15T05:20:22.982Z,22.08
2017-12-15T05:22:49.270Z,20.70
2017-12-15T05:25:15.587Z,22.65
2017-12-15T05:27:41.846Z,19.90
2017-12-15T05:30:08.122Z,20.33
2017-12-15T05:32:34.402Z,19.10
2017-12-15T05:35:00.681Z,18.77
2017-12-15T05:37:27.012Z,22.95
2017-12-15T05:39:53.288Z,17.35
2017-12-15T05:42:19.561Z,18.00
2017-12-15T05:44:45.843Z,23.20
2017-12-15T05:47:12.108Z,17.12
2017-12-15T05:49:38.396Z,16.20
2017-12-15T05:52:04.692Z,13.93
2017-12-15T05:54:31.902Z,20.52
2017-12-15T05:56:58.212Z,16.52
2017-12-15T05:59:25.363Z,19.15
2017-12-15T06:01:52.375Z,19.02
2017-12-15T06:04:18.658Z,16.35
2017-12-15T06:06:44.951Z,17.50
2017-12-15T06:09:11.984Z,17.25
2017-12-15T06:11:38.282Z,16.27
2017-12-15T06:14:04.633Z,24.02
2017-12-15T06:16:30.948Z,16.00
2017-12-15T06:18:57.215Z,17.60
2017-12-15T06:21:23.462Z,20.73
2017-12-15T06:23:50.488Z,13.30
2017-12-15T06:26:18.222Z,19.08
2017-12-15T06:28:44.501Z,14.90
2017-12-15T06:31:10.775Z,14.02
2017-12-15T06:33:37.069Z,12.35
2017-12-15T06:36:03.358Z,16.00
2017-12-15T06:38:29.656Z,11.98
2017-12-15T06:40:55.945Z,17.35
2017-12-15T06:43:23.022Z,12.02
2017-12-15T06:45:49.308Z,11.07
2017-12-15T06:48:16.332Z,17.55
2017-12-15T06:50:42.606Z,25.73
2017-12-15T06:53:08.869Z,13.45
2017-12-15T06:55:35.085Z,20.00
2017-12-15T06:58:01.351Z,14.43
2017-12-15T07:00:28.345Z,19.12
2017-12-15T07:02:54.574Z,13.05
2017-12-15T07:05:26.873Z,14.32
2017-12-15T07:07:53.112Z,23.05
2017-12-15T07:10:19.407Z,15.57
2017-12-15T07:12:45.657Z,13.27
2017-12-15T07:15:11.922Z,18.30
2017-12-15T07:17:38.915Z,18.20
2017-12-15T07:20:05.181Z,16.15
2017-12-15T07:22:32.185Z,16.00
2017-12-15T07:24:59.245Z,13.82
2017-12-15T07:27:25.538Z,16.02
2017-12-15T07:29:51.779Z,20.67
2017-12-15T07:32:17.998Z,15.15
2017-12-15T07:34:44.259Z,14.90
2017-12-15T07:37:10.503Z,15.98
2017-12-15T07:39:36.728Z,16.77
2017-12-15T07:42:02.966Z,18.48
2017-12-15T07:44:29.985Z,21.95
2017-12-15T07:46:56.257Z,18.98
2017-12-15T07:49:23.329Z,13.98
2017-12-15T07:54:56.161Z,21.52
2017-12-15T07:57:22.239Z,16.15
2017-12-15T07:59:49.068Z,22.48
2017-12-15T08:02:15.104Z,20.35
2017-12-15T08:04:41.174Z,18.83
2017-12-15T08:07:07.253Z,18.02
2017-12-15T08:09:33.305Z,14.65
2017-12-15T08:11:59.374Z,18.23
2017-12-15T08:14:26.206Z,15.98
2017-12-15T08:16:52.276Z,17.17
2017-12-15T08:19:19.102Z,13.85
2017-12-15T08:21:45.167Z,19.52
2017-12-15T08:24:12.021Z,17.40
2017-12-15T08:26:38.865Z,17.58
2017-12-15T08:29:05.725Z,12.95
2017-12-15T08:31:32.595Z,18.08
2017-12-15T08:33:58.668Z,17.75
2017-12-15T08:36:24.805Z,23.40
2017-12-15T08:38:50.898Z,18.20
2017-12-15T08:41:17.978Z,20.45
2017-12-15T08:43:44.033Z,23.30
2017-12-15T08:46:10.133Z,19.42
2017-12-15T08:48:36.938Z,12.77
2017-12-15T08:51:03.021Z,16.92
2017-12-15T08:53:29.845Z,17.12
2017-12-15T08:55:55.908Z,15.38
2017-12-15T08:58:22.820Z,15.15
2017-12-15T09:00:48.909Z,14.50
2017-12-15T09:03:15.716Z,15.23
2017-12-15T09:05:42.541Z,19.40
2017-12-15T09:08:08.651Z,16.12
2017-12-15T09:10:35.465Z,18.25
2017-12-15T09:13:01.761Z,15.10
2017-12-15T09:15:28.622Z,18.67
2017-12-15T09:17:54.764Z,14.10
2017-12-15T09:20:20.944Z,16.75
2017-12-15T09:22:47.061Z,12.77
2017-12-15T09:25:14.681Z,18.10
2017-12-15T09:27:40.747Z,29.25
2017-12-15T09:30:06.825Z,11.88
2017-12-15T09:32:33.001Z,13.77
2017-12-15T09:34:59.065Z,11.57
2017-12-15T09:37:27.497Z,12.63
2017-12-15T09:39:53.606Z,11.10
2017-12-15T09:42:19.683Z,17.12
2017-12-15T09:44:45.742Z,14.70
2017-12-15T09:47:11.802Z,11.10
2017-12-15T09:49:38.641Z,11.48
2017-12-15T09:52:05.458Z,12.37
2017-12-15T09:57:02.522Z,8.75
2017-12-15T09:59:28.572Z,11.48
2017-12-15T10:01:54.627Z,9.73
2017-12-15T10:04:20.707Z,9.82
2017-12-15T10:06:46.761Z,10.20
2017-12-15T10:09:12.815Z,10.20
2017-12-15T10:11:38.873Z,8.60
2017-12-15T10:14:09.461Z,8.75
2017-12-15T10:16:36.598Z,7.47
2017-12-15T10:19:02.648Z,8.77
2017-12-15T10:21:29.445Z,9.27
2017-12-15T10:23:55.493Z,6.57
2017-12-15T10:26:21.537Z,9.98
2017-12-15T10:28:47.616Z,6.00
2017-12-15T10:31:16.314Z,6.32
2017-12-15T10:33:43.149Z,13.98
2017-12-15T10:36:09.233Z,7.32
2017-12-15T10:38:35.285Z,8.23
2017-12-15T10:41:01.344Z,6.97
2017-12-15T10:43:28.183Z,6.60
2017-12-15T10:45:54.240Z,6.15
2017-12-15T10:48:21.054Z,8.73
2017-12-15T10:50:47.110Z,9.40
2017-12-15T10:53:13.726Z,8.82
2017-12-15T10:55:39.773Z,3.87
2017-12-15T10:58:05.834Z,6.97
2017-12-15T11:00:31.894Z,6.95
2017-12-15T11:02:57.962Z,7.47
2017-12-15T11:05:24.041Z,7.50
2017-12-15T11:07:50.101Z,5.87
2017-12-15T11:10:16.178Z,8.15
2017-12-15T11:12:44.899Z,5.80
2017-12-15T11:15:11.125Z,8.13
2017-12-15T11:17:37.410Z,5.53
2017-12-15T11:20:04.424Z,4.55
2017-12-15T11:22:30.792Z,5.75
2017-12-15T11:24:57.037Z,3.08
2017-12-15T11:27:23.294Z,5.60
2017-12-15T11:29:54.615Z,7.35
2017-12-15T11:32:20.874Z,4.60
2017-12-15T11:34:47.152Z,6.75
2017-12-15T11:37:14.290Z,8.52
2017-12-15T11:39:40.560Z,3.35
2017-12-15T11:42:06.797Z,6.15
2017-12-15T11:44:33.070Z,6.87
2017-12-15T11:47:00.065Z,4.87
2017-12-15T11:49:28.040Z,4.47
2017-12-15T11:51:54.385Z,4.03
2017-12-15T11:54:21.398Z,7.30
2017-12-15T11:56:47.661Z,5.20
2017-12-15T11:59:13.932Z,8.25
2017-12-15T12:01:40.954Z,3.03
2017-12-15T12:04:07.197Z,3.65
2017-12-15T12:06:33.508Z,4.22
2017-12-15T12:09:02.354Z,4.22
2017-12-15T12:11:28.605Z,3.55
2017-12-15T12:13:54.995Z,3.17
2017-12-15T12:16:21.254Z,2.75
2017-12-15T12:18:48.278Z,4.40
2017-12-15T12:21:14.670Z,4.82
2017-12-15T12:23:40.916Z,3.85
2017-12-15T12:26:10.055Z,5.60
2017-12-15T12:28:38.489Z,3.30
2017-12-15T12:31:04.766Z,4.18
2017-12-15T12:33:31.054Z,3.50
2017-12-15T12:35:57.385Z,7.72
2017-12-15T12:38:24.412Z,7.70
2017-12-15T12:40:50.715Z,3.78
2017-12-15T12:43:20.481Z,4.12
2017-12-15T12:45:46.540Z,3.55
2017-12-15T12:48:12.650Z,6.28
2017-12-15T12:50:39.630Z,3.78
2017-12-15T12:53:05.696Z,4.53
2017-12-15T12:55:31.921Z,5.35
2017-12-15T12:57:58.282Z,5.53
2017-12-15T13:00:24.560Z,3.62
2017-12-15T13:02:53.307Z,4.55
2017-12-15T13:05:20.309Z,3.50
2017-12-15T13:07:46.563Z,5.57
2017-12-15T13:10:12.825Z,5.12
2017-12-15T13:12:39.058Z,3.00
2017-12-15T13:15:05.351Z,3.05
2017-12-15T13:17:31.607Z,5.18
2017-12-15T13:19:57.852Z,3.90
2017-12-15T13:22:28.447Z,5.00
2017-12-15T13:24:54.743Z,4.12
2017-12-15T13:27:21.057Z,8.82
2017-12-15T13:29:47.342Z,3.70
2017-12-15T13:32:13.609Z,4.30
2017-12-15T13:34:39.900Z,3.97
2017-12-15T13:37:06.166Z,4.57
2017-12-15T13:39:32.456Z,5.93
2017-12-15T13:42:01.822Z,5.72
2017-12-15T13:44:28.119Z,4.10
2017-12-15T13:46:54.381Z,5.30
2017-12-15T13:49:20.672Z,4.37
2017-12-15T13:51:47.076Z,10.02
2017-12-15T13:54:14.348Z,6.22
2017-12-15T13:56:40.653Z,3.58
2017-12-15T13:59:10.518Z,6.43
2017-12-15T14:01:36.749Z,4.57
2017-12-15T14:04:03.761Z,4.43
2017-12-15T14:06:30.106Z,4.22
2017-12-15T14:08:56.618Z,3.90
2017-12-15T14:11:22.944Z,5.68
2017-12-15T14:16:20.514Z,4.30
2017-12-15T14:18:46.816Z,4.70
2017-12-15T14:21:13.098Z,4.37
2017-12-15T14:23:40.129Z,8.20
2017-12-15T14:26:06.369Z,3.75
2017-12-15T14:28:32.627Z,8.70
2017-12-15T14:30:58.900Z,4.12
2017-12-15T14:33:28.884Z,3.67
2017-12-15T14:35:55.293Z,5.03
2017-12-15T14:38:22.309Z,7.68
2017-12-15T14:40:48.775Z,4.93
2017-12-15T14:43:15.062Z,11.38
2017-12-15T14:45:41.317Z,4.85
2017-12-15T14:48:08.357Z,3.62
2017-12-15T14:50:38.192Z,3.75
2017-12-15T14:53:04.432Z,4.37
2017-12-15T14:55:30.729Z,3.67
2017-12-15T14:57:57.069Z,7.40
2017-12-15T15:00:23.395Z,4.75
2017-12-15T15:02:49.671Z,9.27
2017-12-15T15:05:15.939Z,3.78
2017-12-15T15:07:42.256Z,6.12
2017-12-15T15:12:37.385Z,3.85
2017-12-15T15:15:03.645Z,5.18
2017-12-15T15:17:30.701Z,5.62
2017-12-15T15:19:57.033Z,5.53
2017-12-15T15:22:23.349Z,10.02
2017-12-15T15:24:50.017Z,20.50
2017-12-15T15:27:16.434Z,9.63
2017-12-15T15:29:43.598Z,5.55
2017-12-15T15:32:09.937Z,6.90
2017-12-15T15:34:36.622Z,5.10
2017-12-15T15:37:02.941Z,7.78
2017-12-15T15:39:29.227Z,4.97
2017-12-15T15:41:56.330Z,6.50
2017-12-15T15:44:22.598Z,4.28
2017-12-15T15:46:48.872Z,4.15
2017-12-15T15:49:15.817Z,6.50
2017-12-15T15:51:42.825Z,3.10
2017-12-15T15:54:09.112Z,3.78
2017-12-15T15:56:35.442Z,5.55
2017-12-15T15:59:01.706Z,3.60
2017-12-15T16:01:28.766Z,7.50
2017-12-15T16:03:55.836Z,3.97
2017-12-15T16:06:22.861Z,4.70
2017-12-15T16:08:49.245Z,4.22
2017-12-15T16:11:15.518Z,4.25
2017-12-15T16:13:41.821Z,4.20
2017-12-15T16:16:08.645Z,6.45
2017-12-15T16:18:34.931Z,5.40
2017-12-15T16:21:01.318Z,5.00
2017-12-15T16:23:28.372Z,5.25
2017-12-15T16:25:55.369Z,6.57
2017-12-15T16:28:22.171Z,7.62
2017-12-15T16:30:49.228Z,7.40
2017-12-15T16:33:15.663Z,5.60
2017-12-15T16:35:42.046Z,6.30
2017-12-15T16:38:08.382Z,5.65
2017-12-15T16:40:34.686Z,8.70
2017-12-15T16:43:00.999Z,5.50
2017-12-15T16:45:27.332Z,11.10
2017-12-15T16:47:53.725Z,6.47
2017-12-15T16:50:20.772Z,7.15
2017-12-15T16:52:47.048Z,5.95
2017-12-15T16:55:13.492Z,7.15
2017-12-15T16:57:40.529Z,6.37
2017-12-15T17:00:06.807Z,6.15
2017-12-15T17:02:33.081Z,6.18
2017-12-15T17:04:59.349Z,5.68
2017-12-15T17:07:25.646Z,6.70
2017-12-15T17:09:52.689Z,6.25
2017-12-15T17:12:26.044Z,6.53
2017-12-15T17:14:52.376Z,7.65
2017-12-15T17:17:19.409Z,7.20
2017-12-15T17:19:45.718Z,10.07
2017-12-15T17:22:12.038Z,8.48
2017-12-15T17:24:39.169Z,7.40
2017-12-15T17:27:05.482Z,6.97
2017-12-15T17:29:33.945Z,8.38
2017-12-15T17:32:00.961Z,7.53
2017-12-15T17:34:27.210Z,7.93
2017-12-15T17:36:57.289Z,10.50
2017-12-15T17:39:23.578Z,10.77
2017-12-15T17:41:49.852Z,9.75
2017-12-15T17:44:16.118Z,12.43
2017-12-15T17:46:49.892Z,11.15
2017-12-15T17:49:16.004Z,11.02
2017-12-15T17:51:42.069Z,10.25
2017-12-15T17:54:08.134Z,10.13
2017-12-15T17:56:34.220Z,10.05
2017-12-15T17:59:01.258Z,10.63
2017-12-15T18:01:28.065Z,11.57
2017-12-15T18:03:54.194Z,12.88
2017-12-15T18:06:22.581Z,11.02
2017-12-15T18:08:48.857Z,11.98
2017-12-15T18:11:15.177Z,14.40
2017-12-15T18:13:41.522Z,10.65
2017-12-15T18:16:07.817Z,10.60
2017-12-15T18:18:34.086Z,11.70
2017-12-15T18:21:00.357Z,16.08
2017-12-15T18:23:26.821Z,23.42
2017-12-15T18:26:00.072Z,13.32
2017-12-15T18:28:26.329Z,18.50
2017-12-15T18:30:52.644Z,13.20
2017-12-15T18:33:18.921Z,13.27
2017-12-15T18:35:45.103Z,13.13
2017-12-15T18:38:11.385Z,12.73
2017-12-15T18:40:37.653Z,17.25
2017-12-15T18:43:03.915Z,15.10
2017-12-15T18:45:33.586Z,16.62
2017-12-15T18:47:59.877Z,13.30
2017-12-15T18:50:26.122Z,20.27
2017-12-15T18:52:52.358Z,15.07
2017-12-15T18:55:18.645Z,19.23
2017-12-15T18:57:45.698Z,19.08
2017-12-15T19:00:12.078Z,20.12
2017-12-15T19:02:43.279Z,16.52
2017-12-15T19:05:10.442Z,16.45
2017-12-15T19:07:36.715Z,16.10
2017-12-15T19:10:02.995Z,16.73
2017-12-15T19:12:30.078Z,16.08
2017-12-15T19:14:56.319Z,16.62
2017-12-15T19:17:29.131Z,17.52
2017-12-15T19:19:56.221Z,17.15
2017-12-15T19:22:22.542Z,17.62
2017-12-15T19:24:49.147Z,18.17
2017-12-15T19:27:16.498Z,20.80
2017-12-15T19:29:42.789Z,18.15
2017-12-15T19:32:09.826Z,17.02
2017-12-15T19:34:42.719Z,17.37
2017-12-15T19:37:08.977Z,17.00
2017-12-15T19:39:35.246Z,18.25
2017-12-15T19:42:01.592Z,19.15
2017-12-15T19:44:27.881Z,19.15
2017-12-15T19:46:54.173Z,16.00
2017-12-15T19:49:25.641Z,17.20
2017-12-15T19:51:51.959Z,19.17
2017-12-15T19:54:18.276Z,20.37
2017-12-15T19:56:44.553Z,20.95
2017-12-15T19:59:10.864Z,19.02
2017-12-15T20:01:37.154Z,18.50
2017-12-15T20:04:03.413Z,18.55
2017-12-15T20:06:30.433Z,18.98
2017-12-15T20:09:00.781Z,18.65
2017-12-15T20:11:27.073Z,19.52
2017-12-15T20:13:54.128Z,18.50
2017-12-15T20:16:20.445Z,17.65
2017-12-15T20:18:46.805Z,20.80
2017-12-15T20:21:13.079Z,17.92
2017-12-15T20:23:39.454Z,21.35
2017-12-15T20:26:05.782Z,17.77
2017-12-15T20:28:38.246Z,21.95
2017-12-15T20:31:04.383Z,18.70
2017-12-15T20:33:30.696Z,18.27
2017-12-15T20:35:57.064Z,22.90
2017-12-15T20:38:23.450Z,22.27
2017-12-15T20:40:49.739Z,18.90
2017-12-15T20:43:16.111Z,24.87
2017-12-15T20:45:47.590Z,21.70
2017-12-15T20:48:13.939Z,18.40
2017-12-15T20:50:40.185Z,19.58
2017-12-15T20:53:06.490Z,19.45
2017-12-15T20:55:33.525Z,17.95
2017-12-15T20:57:59.800Z,16.40
2017-12-15T21:00:26.832Z,19.02
2017-12-15T21:02:55.740Z,19.85
2017-12-15T21:05:22.157Z,17.25
2017-12-15T21:07:48.459Z,20.10
2017-12-15T21:10:14.694Z,20.60
2017-12-15T21:12:40.947Z,18.65
2017-12-15T21:15:07.245Z,17.80
2017-12-15T21:17:33.557Z,20.20
2017-12-15T21:22:31.053Z,23.45
2017-12-15T21:24:57.322Z,19.70
2017-12-15T21:27:23.663Z,25.50
2017-12-15T21:29:50.719Z,26.00
2017-12-15T21:32:17.022Z,23.38
2017-12-15T21:34:43.278Z,23.87
2017-12-15T21:37:09.580Z,22.33
2017-12-15T21:39:37.421Z,24.45
2017-12-15T21:42:03.706Z,20.30
2017-12-15T21:44:29.993Z,27.62
2017-12-15T21:46:56.226Z,26.52
2017-12-15T21:49:22.544Z,22.08
2017-12-15T21:51:49.041Z,25.37
2017-12-15T21:54:15.355Z,21.62
2017-12-15T21:56:41.711Z,23.33
2017-12-15T21:59:12.511Z,26.55
2017-12-15T22:01:38.816Z,25.12
2017-12-15T22:04:06.005Z,26.05
2017-12-15T22:06:32.273Z,23.33
2017-12-15T22:08:58.556Z,24.37
2017-12-15T22:11:24.937Z,26.05
2017-12-15T22:13:51.209Z,28.42
2017-12-15T22:16:18.225Z,34.10
2017-12-15T22:18:44.521Z,34.97
2017-12-15T22:21:10.806Z,36.47
2017-12-15T22:23:37.121Z,41.10
2017-12-15T22:26:03.446Z,39.38
2017-12-15T22:28:29.796Z,38.00
2017-12-15T22:30:56.215Z,40.20
2017-12-15T22:33:22.631Z,41.28
2017-12-15T22:35:48.914Z,35.50
2017-12-15T22:38:15.415Z,43.50
2017-12-15T22:40:41.670Z,38.88
2017-12-15T22:43:07.953Z,32.15
2017-12-15T22:45:34.966Z,32.60
2017-12-15T22:48:01.528Z,32.28
2017-12-15T22:50:27.802Z,33.80
2017-12-15T22:52:54.133Z,34.33
2017-12-15T22:55:20.385Z,32.90
2017-12-15T22:57:47.397Z,31.65
2017-12-15T23:00:13.692Z,34.72
2017-12-15T23:02:39.867Z,32.28
2017-12-15T23:05:06.177Z,36.63
2017-12-15T23:07:32.515Z,35.47
2017-12-15T23:09:59.522Z,37.13
2017-12-15T23:12:26.105Z,35.72
2017-12-15T23:14:52.378Z,43.78
2017-12-15T23:17:18.670Z,38.13
2017-12-15T23:19:46.010Z,32.30
2017-12-15T23:22:12.308Z,37.35
2017-12-15T23:24:38.644Z,31.08
2017-12-15T23:27:04.985Z,30.70
2017-12-15T23:29:31.367Z,28.90
2017-12-15T23:31:57.649Z,30.33
2017-12-15T23:34:24.701Z,29.65
2017-12-15T23:36:51.020Z,27.70
2017-12-15T23:39:17.337Z,27.60
2017-12-15T23:41:43.681Z,35.08
2017-12-15T23:44:09.985Z,32.55
2017-12-15T23:46:36.267Z,30.65
2017-12-15T23:49:02.837Z,31.80
2017-12-15T23:51:29.114Z,35.95
2017-12-15T23:53:55.413Z,38.80
2017-12-15T23:59:24.786Z,26.25
